Sangley Point, Philippines

8:34 PM PHT on July 10, 2014 (GMT +0800)
Ninoy Aquino International (RPLL) Elev 49 ft | 14.51 °N, 121.00 °E | Change Station

Current weather conditions updated 34 minutes ago

Scattered Clouds
Scattered Clouds
82 °F
Feels Like 92 °F
N
1
Wind Variable Wind from Variable

Tomorrow is forecast to be Cooler than today. Thunderstorms.

Today
High -- | Low -- °F
--% Chance of Precip.
Yesterday
High -- | Low -- °F
Precip. -- in
5:33 AM 6:29 PM
Waxing Gibbous, 94% visible
Pressure 29.77 in
Visibility 6.2 miles
Clouds Few 2500 ft
Scattered Clouds 10000 ft
Heat Index 92 °F
Dew Point 79 °F
Humidity 89%
Rainfall 0.00 in
Snow Depth Not available.
UV 0 out of 12
Pollen Not available.
Air Quality Not available.
Flu Activity Not available.
METAR RPLL 101200Z VRB01KT 9999 FEW025 SCT100 28/26 Q1008 RERA NOSIG RMK A2977

More Conditions Fewer Conditions

Pressure 29.77 in
Visibility 6.2 miles
Clouds Few 2500 ft
Scattered Clouds 10000 ft
Heat Index 92 °F
Dew Point 79 °F
Humidity 89%
Rainfall 0.00 in
Snow Depth Not available.
UV 0 out of 12
Pollen Not available.
Air Quality Not available.
Flu Activity Not available.
METAR RPLL 101200Z VRB01KT 9999 FEW025 SCT100 28/26 Q1008 RERA NOSIG RMK A2977

More Conditions Fewer Conditions

10-Day Weather Forecast

Almanac

Astronomy

Jul. 10, 2014 Rise Set
Actual Time 5:33 AM PHT 6:29 PM PHT
Civil Twilight 5:10 AM PHT 6:53 PM PHT
Nautical Twilight 4:42 AM PHT 7:20 PM PHT
Astronomical Twilight 4:14 AM PHT 7:48 PM PHT
Moon 4:15 PM PHT 3:02 AM PHT
Length of Visible Light 13h 42m
Length of Day
12h 56m
Tomorrow will be 0m 20s shorter.
Waxing Gibbous, 94% of the Moon is Illuminated
Today
Waxing Gibbous
Jul 12
Full
Jul 18
Last Quarter
Jul 26
New
Aug 3
First Quarter

Yesterday's Extremes

Country Highs Country Lows

Community

WunderPhotos

Upload Photos

1,732,115 photos uploaded!

Nearby

Snow Depth

Not available.

Earthquake Activity

City Distance Mag. Time & Date
No recent earthquake activity has been reported nearby.
Minimum magnitude displayed is 2.5.

Coastal Water Temperatures

Place Temperature
No Stations Reporting

Nearby Weather Stations

Station Location Temp. Heat Index Dew Point Humidity Wind Precip. Elev Updated Type
Taft Avenue, Manila, 2401 Taft Avenue 83.0 °F 92 °F 77 °F 83% SSW  at  2.0 mph 0.00 in / hr 39 ft 8:30 PM PHT Normal
Dasmarinas, Makati 81.6 °F 88 °F 76 °F 82% SE  at  0.7 mph 0.00 in / hr 49 ft 8:30 PM PHT Normal
Loyola Heights, Quezon City 81.9 °F 91 °F 79 °F 90% ENE  at  0.0 mph - / hr 187 ft 8:28 PM PHT Normal
Pandi Bulacan, San Roque 81.5 °F 86 °F 71 °F 71% East  at  0.4 mph 0.00 in / hr 102 ft 8:34 PM PHT Rapid Fire

Show More Stations Show Fewer Stations